sensor_id;sensor_type;location;lat;lon;timestamp;P1;durP1;ratioP1;P2;durP2;ratioP2
19189;SDS011;9727;50.200;19.038;2023-06-14T00:00:11;16.83;;;10.17;;
19189;SDS011;9727;50.200;19.038;2023-06-14T00:02:38;15.30;;;9.53;;
19189;SDS011;9727;50.200;19.038;2023-06-14T00:05:07;14.80;;;10.60;;
19189;SDS011;9727;50.200;19.038;2023-06-14T00:07:34;16.47;;;10.40;;
19189;SDS011;9727;50.200;19.038;2023-06-14T00:10:02;15.87;;;11.10;;
19189;SDS011;9727;50.200;19.038;2023-06-14T00:12:29;18.07;;;10.30;;
19189;SDS011;9727;50.200;19.038;2023-06-14T00:14:56;20.23;;;11.43;;
19189;SDS011;9727;50.200;19.038;2023-06-14T00:17:26;17.30;;;11.13;;
19189;SDS011;9727;50.200;19.038;2023-06-14T00:19:55;19.17;;;11.40;;
19189;SDS011;9727;50.200;19.038;2023-06-14T00:22:22;18.43;;;11.50;;
19189;SDS011;9727;50.200;19.038;2023-06-14T00:24:51;15.00;;;10.77;;
19189;SDS011;9727;50.200;19.038;2023-06-14T00:27:23;14.50;;;10.50;;
19189;SDS011;9727;50.200;19.038;2023-06-14T00:32:55;16.33;;;11.00;;
19189;SDS011;9727;50.200;19.038;2023-06-14T00:35:23;21.60;;;11.60;;
19189;SDS011;9727;50.200;19.038;2023-06-14T00:37:50;15.83;;;10.63;;
19189;SDS011;9727;50.200;19.038;2023-06-14T00:40:17;17.83;;;11.90;;
19189;SDS011;9727;50.200;19.038;2023-06-14T00:42:46;18.20;;;11.57;;
19189;SDS011;9727;50.200;19.038;2023-06-14T00:45:13;15.00;;;11.50;;
19189;SDS011;9727;50.200;19.038;2023-06-14T00:47:41;14.67;;;10.63;;
19189;SDS011;9727;50.200;19.038;2023-06-14T00:50:14;18.23;;;12.13;;
19189;SDS011;9727;50.200;19.038;2023-06-14T00:52:41;18.63;;;11.37;;
19189;SDS011;9727;50.200;19.038;2023-06-14T00:55:08;17.80;;;11.07;;
19189;SDS011;9727;50.200;19.038;2023-06-14T00:57:35;16.27;;;10.73;;
19189;SDS011;9727;50.200;19.038;2023-06-14T01:00:03;17.73;;;10.70;;
19189;SDS011;9727;50.200;19.038;2023-06-14T01:02:30;15.23;;;10.50;;
19189;SDS011;9727;50.200;19.038;2023-06-14T01:04:57;16.87;;;10.63;;
19189;SDS011;9727;50.200;19.038;2023-06-14T01:07:42;16.43;;;10.47;;
19189;SDS011;9727;50.200;19.038;2023-06-14T01:10:17;15.23;;;10.60;;
19189;SDS011;9727;50.200;19.038;2023-06-14T01:12:48;14.83;;;10.07;;
19189;SDS011;9727;50.200;19.038;2023-06-14T01:15:17;15.30;;;9.77;;
19189;SDS011;9727;50.200;19.038;2023-06-14T01:17:44;17.00;;;10.47;;
19189;SDS011;9727;50.200;19.038;2023-06-14T01:20:11;16.60;;;10.40;;
19189;SDS011;9727;50.200;19.038;2023-06-14T01:22:47;14.17;;;10.03;;
19189;SDS011;9727;50.200;19.038;2023-06-14T01:25:35;15.63;;;10.57;;
19189;SDS011;9727;50.200;19.038;2023-06-14T01:28:03;14.03;;;9.83;;
19189;SDS011;9727;50.200;19.038;2023-06-14T01:30:36;16.53;;;10.00;;
19189;SDS011;9727;50.200;19.038;2023-06-14T01:33:03;14.10;;;9.77;;
19189;SDS011;9727;50.200;19.038;2023-06-14T01:35:33;11.23;;;7.80;;
19189;SDS011;9727;50.200;19.038;2023-06-14T01:38:11;12.63;;;8.13;;
19189;SDS011;9727;50.200;19.038;2023-06-14T01:40:38;11.23;;;8.40;;
19189;SDS011;9727;50.200;19.038;2023-06-14T01:43:08;13.53;;;9.17;;
19189;SDS011;9727;50.200;19.038;2023-06-14T01:45:36;14.77;;;9.00;;
19189;SDS011;9727;50.200;19.038;2023-06-14T01:48:04;11.63;;;8.23;;
19189;SDS011;9727;50.200;19.038;2023-06-14T01:50:36;12.27;;;8.93;;
19189;SDS011;9727;50.200;19.038;2023-06-14T01:53:06;13.17;;;9.70;;
19189;SDS011;9727;50.200;19.038;2023-06-14T01:55:34;12.47;;;9.03;;
19189;SDS011;9727;50.200;19.038;2023-06-14T01:58:02;15.33;;;9.60;;
19189;SDS011;9727;50.200;19.038;2023-06-14T02:00:29;10.97;;;8.57;;
19189;SDS011;9727;50.200;19.038;2023-06-14T02:02:56;13.90;;;9.23;;
19189;SDS011;9727;50.200;19.038;2023-06-14T02:05:23;12.33;;;8.83;;
19189;SDS011;9727;50.200;19.038;2023-06-14T02:07:53;12.50;;;8.50;;
19189;SDS011;9727;50.200;19.038;2023-06-14T02:10:21;11.07;;;8.37;;
19189;SDS011;9727;50.200;19.038;2023-06-14T02:12:48;12.60;;;8.27;;
19189;SDS011;9727;50.200;19.038;2023-06-14T02:15:15;11.83;;;8.63;;
19189;SDS011;9727;50.200;19.038;2023-06-14T02:17:45;11.60;;;7.90;;
19189;SDS011;9727;50.200;19.038;2023-06-14T02:20:12;13.07;;;9.00;;
19189;SDS011;9727;50.200;19.038;2023-06-14T02:22:39;13.73;;;9.50;;
19189;SDS011;9727;50.200;19.038;2023-06-14T02:25:08;14.30;;;8.50;;
19189;SDS011;9727;50.200;19.038;2023-06-14T02:27:36;13.67;;;10.07;;
19189;SDS011;9727;50.200;19.038;2023-06-14T02:30:03;15.50;;;10.67;;
19189;SDS011;9727;50.200;19.038;2023-06-14T02:32:32;17.87;;;11.50;;
19189;SDS011;9727;50.200;19.038;2023-06-14T02:35:00;15.67;;;11.10;;
19189;SDS011;9727;50.200;19.038;2023-06-14T02:37:27;16.63;;;11.47;;
19189;SDS011;9727;50.200;19.038;2023-06-14T02:39:53;15.00;;;10.70;;
19189;SDS011;9727;50.200;19.038;2023-06-14T02:42:20;16.93;;;12.07;;
19189;SDS011;9727;50.200;19.038;2023-06-14T02:44:48;17.27;;;11.77;;
19189;SDS011;9727;50.200;19.038;2023-06-14T02:47:16;15.97;;;11.30;;
19189;SDS011;9727;50.200;19.038;2023-06-14T02:49:42;17.77;;;11.53;;
19189;SDS011;9727;50.200;19.038;2023-06-14T02:52:11;18.33;;;11.20;;
19189;SDS011;9727;50.200;19.038;2023-06-14T02:54:38;18.30;;;11.77;;
19189;SDS011;9727;50.200;19.038;2023-06-14T02:57:08;17.13;;;11.77;;
19189;SDS011;9727;50.200;19.038;2023-06-14T02:59:35;19.37;;;12.37;;
19189;SDS011;9727;50.200;19.038;2023-06-14T03:02:04;19.57;;;12.00;;
19189;SDS011;9727;50.200;19.038;2023-06-14T03:04:33;21.40;;;12.67;;
19189;SDS011;9727;50.200;19.038;2023-06-14T03:07:02;18.97;;;12.00;;
19189;SDS011;9727;50.200;19.038;2023-06-14T03:09:36;19.00;;;11.67;;
19189;SDS011;9727;50.200;19.038;2023-06-14T03:12:03;18.07;;;12.00;;
19189;SDS011;9727;50.200;19.038;2023-06-14T03:14:30;18.47;;;11.67;;
19189;SDS011;9727;50.200;19.038;2023-06-14T03:16:57;17.53;;;11.43;;
19189;SDS011;9727;50.200;19.038;2023-06-14T03:19:25;20.10;;;11.87;;
19189;SDS011;9727;50.200;19.038;2023-06-14T03:21:52;20.60;;;11.43;;
19189;SDS011;9727;50.200;19.038;2023-06-14T03:24:22;19.07;;;11.80;;
19189;SDS011;9727;50.200;19.038;2023-06-14T03:26:48;17.60;;;11.63;;
19189;SDS011;9727;50.200;19.038;2023-06-14T03:29:15;19.40;;;12.20;;
19189;SDS011;9727;50.200;19.038;2023-06-14T03:31:56;20.30;;;12.00;;
19189;SDS011;9727;50.200;19.038;2023-06-14T03:34:23;20.27;;;11.50;;
19189;SDS011;9727;50.200;19.038;2023-06-14T03:36:51;15.00;;;9.37;;
19189;SDS011;9727;50.200;19.038;2023-06-14T03:39:18;18.03;;;10.27;;
19189;SDS011;9727;50.200;19.038;2023-06-14T03:41:45;20.03;;;11.60;;
19189;SDS011;9727;50.200;19.038;2023-06-14T03:44:11;19.07;;;11.63;;
19189;SDS011;9727;50.200;19.038;2023-06-14T03:46:38;20.37;;;11.70;;
19189;SDS011;9727;50.200;19.038;2023-06-14T03:49:04;18.47;;;10.87;;
19189;SDS011;9727;50.200;19.038;2023-06-14T03:51:35;23.50;;;11.97;;
19189;SDS011;9727;50.200;19.038;2023-06-14T03:54:03;21.17;;;11.13;;
19189;SDS011;9727;50.200;19.038;2023-06-14T03:56:29;17.57;;;11.43;;
19189;SDS011;9727;50.200;19.038;2023-06-14T03:58:56;18.53;;;10.70;;
19189;SDS011;9727;50.200;19.038;2023-06-14T04:01:24;15.17;;;10.30;;
19189;SDS011;9727;50.200;19.038;2023-06-14T04:03:52;19.17;;;11.43;;
19189;SDS011;9727;50.200;19.038;2023-06-14T04:06:19;17.63;;;11.10;;
19189;SDS011;9727;50.200;19.038;2023-06-14T04:08:53;18.50;;;11.10;;
19189;SDS011;9727;50.200;19.038;2023-06-14T04:11:21;21.00;;;11.20;;
19189;SDS011;9727;50.200;19.038;2023-06-14T04:13:48;18.83;;;10.97;;
19189;SDS011;9727;50.200;19.038;2023-06-14T04:16:14;17.50;;;11.33;;
19189;SDS011;9727;50.200;19.038;2023-06-14T04:18:41;20.77;;;11.40;;
19189;SDS011;9727;50.200;19.038;2023-06-14T04:21:13;16.90;;;11.13;;
19189;SDS011;9727;50.200;19.038;2023-06-14T04:23:39;18.80;;;10.63;;
19189;SDS011;9727;50.200;19.038;2023-06-14T04:26:10;14.83;;;10.63;;
19189;SDS011;9727;50.200;19.038;2023-06-14T04:28:39;16.17;;;10.10;;
19189;SDS011;9727;50.200;19.038;2023-06-14T04:31:10;18.43;;;11.20;;
19189;SDS011;9727;50.200;19.038;2023-06-14T04:33:37;16.03;;;10.77;;
19189;SDS011;9727;50.200;19.038;2023-06-14T04:36:10;16.33;;;11.30;;
19189;SDS011;9727;50.200;19.038;2023-06-14T04:38:37;17.53;;;10.37;;
19189;SDS011;9727;50.200;19.038;2023-06-14T04:41:04;18.70;;;10.97;;
19189;SDS011;9727;50.200;19.038;2023-06-14T04:43:36;16.10;;;10.63;;
19189;SDS011;9727;50.200;19.038;2023-06-14T04:46:09;15.90;;;11.20;;
19189;SDS011;9727;50.200;19.038;2023-06-14T04:48:36;20.77;;;11.53;;
19189;SDS011;9727;50.200;19.038;2023-06-14T04:51:09;22.47;;;11.97;;
19189;SDS011;9727;50.200;19.038;2023-06-14T04:53:41;19.43;;;12.60;;
19189;SDS011;9727;50.200;19.038;2023-06-14T04:56:09;22.37;;;13.30;;
19189;SDS011;9727;50.200;19.038;2023-06-14T04:58:43;20.87;;;12.57;;
19189;SDS011;9727;50.200;19.038;2023-06-14T05:01:13;20.60;;;12.43;;
19189;SDS011;9727;50.200;19.038;2023-06-14T05:03:39;20.03;;;12.73;;
19189;SDS011;9727;50.200;19.038;2023-06-14T05:06:13;22.70;;;12.80;;
19189;SDS011;9727;50.200;19.038;2023-06-14T05:08:40;20.90;;;12.97;;
19189;SDS011;9727;50.200;19.038;2023-06-14T05:11:07;27.93;;;14.77;;
19189;SDS011;9727;50.200;19.038;2023-06-14T05:13:33;29.83;;;15.50;;
19189;SDS011;9727;50.200;19.038;2023-06-14T05:16:00;22.30;;;14.77;;
19189;SDS011;9727;50.200;19.038;2023-06-14T05:18:28;20.77;;;13.97;;
19189;SDS011;9727;50.200;19.038;2023-06-14T05:20:55;28.50;;;14.47;;
19189;SDS011;9727;50.200;19.038;2023-06-14T05:23:22;19.83;;;13.53;;
19189;SDS011;9727;50.200;19.038;2023-06-14T05:25:48;26.90;;;14.10;;
19189;SDS011;9727;50.200;19.038;2023-06-14T05:28:15;21.43;;;13.87;;
19189;SDS011;9727;50.200;19.038;2023-06-14T05:30:42;20.73;;;13.30;;
19189;SDS011;9727;50.200;19.038;2023-06-14T05:33:13;23.60;;;13.57;;
19189;SDS011;9727;50.200;19.038;2023-06-14T05:35:42;23.53;;;12.67;;
19189;SDS011;9727;50.200;19.038;2023-06-14T05:38:08;18.47;;;13.13;;
19189;SDS011;9727;50.200;19.038;2023-06-14T05:40:35;20.23;;;12.60;;
19189;SDS011;9727;50.200;19.038;2023-06-14T05:43:02;22.33;;;13.40;;
19189;SDS011;9727;50.200;19.038;2023-06-14T05:45:28;24.47;;;14.70;;
19189;SDS011;9727;50.200;19.038;2023-06-14T05:47:55;22.43;;;13.83;;
19189;SDS011;9727;50.200;19.038;2023-06-14T05:50:21;22.13;;;14.30;;
19189;SDS011;9727;50.200;19.038;2023-06-14T05:52:50;22.70;;;14.53;;
19189;SDS011;9727;50.200;19.038;2023-06-14T05:55:17;23.60;;;14.67;;
19189;SDS011;9727;50.200;19.038;2023-06-14T05:57:46;26.30;;;15.40;;
19189;SDS011;9727;50.200;19.038;2023-06-14T06:00:15;25.40;;;14.97;;
19189;SDS011;9727;50.200;19.038;2023-06-14T06:02:41;19.27;;;13.83;;
19189;SDS011;9727;50.200;19.038;2023-06-14T06:05:09;21.87;;;13.63;;
19189;SDS011;9727;50.200;19.038;2023-06-14T06:07:35;20.70;;;14.00;;
19189;SDS011;9727;50.200;19.038;2023-06-14T06:10:04;24.73;;;15.27;;
19189;SDS011;9727;50.200;19.038;2023-06-14T06:12:42;20.33;;;14.27;;
19189;SDS011;9727;50.200;19.038;2023-06-14T06:15:09;21.30;;;13.53;;
19189;SDS011;9727;50.200;19.038;2023-06-14T06:17:37;20.77;;;13.87;;
19189;SDS011;9727;50.200;19.038;2023-06-14T06:20:04;21.80;;;13.60;;
19189;SDS011;9727;50.200;19.038;2023-06-14T06:22:33;19.77;;;13.63;;
19189;SDS011;9727;50.200;19.038;2023-06-14T06:25:00;21.57;;;13.97;;
19189;SDS011;9727;50.200;19.038;2023-06-14T06:27:28;19.20;;;13.10;;
19189;SDS011;9727;50.200;19.038;2023-06-14T06:29:54;18.50;;;12.87;;
19189;SDS011;9727;50.200;19.038;2023-06-14T06:32:21;19.40;;;13.90;;
19189;SDS011;9727;50.200;19.038;2023-06-14T06:34:48;18.53;;;13.80;;
19189;SDS011;9727;50.200;19.038;2023-06-14T06:37:15;16.57;;;12.73;;
19189;SDS011;9727;50.200;19.038;2023-06-14T06:39:42;19.73;;;12.80;;
19189;SDS011;9727;50.200;19.038;2023-06-14T06:42:09;20.50;;;13.20;;
19189;SDS011;9727;50.200;19.038;2023-06-14T06:44:39;22.17;;;13.70;;
19189;SDS011;9727;50.200;19.038;2023-06-14T06:47:09;18.87;;;14.33;;
19189;SDS011;9727;50.200;19.038;2023-06-14T06:49:36;18.67;;;14.00;;
19189;SDS011;9727;50.200;19.038;2023-06-14T06:52:08;19.37;;;13.80;;
19189;SDS011;9727;50.200;19.038;2023-06-14T06:54:40;19.57;;;13.30;;
19189;SDS011;9727;50.200;19.038;2023-06-14T06:57:11;21.73;;;14.23;;
19189;SDS011;9727;50.200;19.038;2023-06-14T06:59:40;18.87;;;13.57;;
19189;SDS011;9727;50.200;19.038;2023-06-14T07:02:10;18.50;;;13.63;;
19189;SDS011;9727;50.200;19.038;2023-06-14T07:04:38;18.03;;;12.27;;
19189;SDS011;9727;50.200;19.038;2023-06-14T07:07:08;21.77;;;13.40;;
19189;SDS011;9727;50.200;19.038;2023-06-14T07:09:34;18.20;;;12.43;;
19189;SDS011;9727;50.200;19.038;2023-06-14T07:12:21;18.40;;;12.07;;
19189;SDS011;9727;50.200;19.038;2023-06-14T07:14:50;16.17;;;11.30;;
19189;SDS011;9727;50.200;19.038;2023-06-14T07:17:18;11.50;;;9.60;;
19189;SDS011;9727;50.200;19.038;2023-06-14T07:23:01;11.87;;;8.23;;
19189;SDS011;9727;50.200;19.038;2023-06-14T07:25:27;11.83;;;7.80;;
19189;SDS011;9727;50.200;19.038;2023-06-14T07:28:00;10.47;;;8.10;;
19189;SDS011;9727;50.200;19.038;2023-06-14T07:30:29;9.00;;;7.30;;
19189;SDS011;9727;50.200;19.038;2023-06-14T07:32:55;8.50;;;7.60;;
19189;SDS011;9727;50.200;19.038;2023-06-14T07:35:22;7.57;;;6.50;;
19189;SDS011;9727;50.200;19.038;2023-06-14T07:37:49;7.63;;;6.57;;
19189;SDS011;9727;50.200;19.038;2023-06-14T07:40:16;7.00;;;6.00;;
19189;SDS011;9727;50.200;19.038;2023-06-14T07:42:42;7.67;;;6.33;;
19189;SDS011;9727;50.200;19.038;2023-06-14T07:45:09;9.90;;;6.53;;
19189;SDS011;9727;50.200;19.038;2023-06-14T07:47:37;9.20;;;6.07;;
19189;SDS011;9727;50.200;19.038;2023-06-14T07:50:04;6.80;;;5.63;;
19189;SDS011;9727;50.200;19.038;2023-06-14T07:52:35;6.53;;;5.40;;
19189;SDS011;9727;50.200;19.038;2023-06-14T07:55:02;9.13;;;5.77;;
19189;SDS011;9727;50.200;19.038;2023-06-14T07:57:42;9.70;;;6.70;;
19189;SDS011;9727;50.200;19.038;2023-06-14T08:00:10;7.33;;;5.50;;
19189;SDS011;9727;50.200;19.038;2023-06-14T08:02:41;8.97;;;6.27;;
19189;SDS011;9727;50.200;19.038;2023-06-14T08:05:17;8.63;;;6.30;;
19189;SDS011;9727;50.200;19.038;2023-06-14T08:07:49;9.43;;;6.23;;
19189;SDS011;9727;50.200;19.038;2023-06-14T08:10:16;9.43;;;6.50;;
19189;SDS011;9727;50.200;19.038;2023-06-14T08:12:42;12.83;;;7.33;;
19189;SDS011;9727;50.200;19.038;2023-06-14T08:15:10;9.33;;;7.30;;
19189;SDS011;9727;50.200;19.038;2023-06-14T08:17:36;18.13;;;7.93;;
19189;SDS011;9727;50.200;19.038;2023-06-14T08:20:08;10.33;;;7.50;;
19189;SDS011;9727;50.200;19.038;2023-06-14T08:22:35;9.40;;;6.63;;
19189;SDS011;9727;50.200;19.038;2023-06-14T08:25:02;9.83;;;6.97;;
19189;SDS011;9727;50.200;19.038;2023-06-14T08:27:29;8.67;;;6.07;;
19189;SDS011;9727;50.200;19.038;2023-06-14T08:29:56;7.10;;;5.53;;
19189;SDS011;9727;50.200;19.038;2023-06-14T08:32:22;5.63;;;4.60;;
19189;SDS011;9727;50.200;19.038;2023-06-14T08:34:49;9.87;;;4.67;;
19189;SDS011;9727;50.200;19.038;2023-06-14T08:37:17;5.43;;;4.60;;
19189;SDS011;9727;50.200;19.038;2023-06-14T08:39:44;5.30;;;4.60;;
19189;SDS011;9727;50.200;19.038;2023-06-14T08:42:10;5.27;;;4.77;;
19189;SDS011;9727;50.200;19.038;2023-06-14T08:44:39;6.83;;;4.90;;
19189;SDS011;9727;50.200;19.038;2023-06-14T08:47:08;7.03;;;4.73;;
19189;SDS011;9727;50.200;19.038;2023-06-14T08:49:36;5.67;;;5.07;;
19189;SDS011;9727;50.200;19.038;2023-06-14T08:54:56;7.57;;;5.03;;
19189;SDS011;9727;50.200;19.038;2023-06-14T08:57:35;6.43;;;5.10;;
19189;SDS011;9727;50.200;19.038;2023-06-14T09:00:09;5.70;;;5.10;;
19189;SDS011;9727;50.200;19.038;2023-06-14T09:02:38;6.40;;;5.10;;
19189;SDS011;9727;50.200;19.038;2023-06-14T09:05:09;6.60;;;5.30;;
19189;SDS011;9727;50.200;19.038;2023-06-14T09:07:36;6.53;;;4.70;;
19189;SDS011;9727;50.200;19.038;2023-06-14T09:10:12;6.90;;;4.77;;
19189;SDS011;9727;50.200;19.038;2023-06-14T09:12:39;5.97;;;4.20;;
19189;SDS011;9727;50.200;19.038;2023-06-14T09:15:09;4.67;;;4.10;;
19189;SDS011;9727;50.200;19.038;2023-06-14T09:17:36;6.03;;;4.03;;
19189;SDS011;9727;50.200;19.038;2023-06-14T09:20:03;4.50;;;3.80;;
19189;SDS011;9727;50.200;19.038;2023-06-14T09:22:36;6.87;;;4.13;;
19189;SDS011;9727;50.200;19.038;2023-06-14T09:25:10;4.23;;;3.83;;
19189;SDS011;9727;50.200;19.038;2023-06-14T09:27:40;4.47;;;3.50;;
19189;SDS011;9727;50.200;19.038;2023-06-14T09:30:10;4.00;;;3.60;;
19189;SDS011;9727;50.200;19.038;2023-06-14T09:32:37;6.43;;;3.40;;
19189;SDS011;9727;50.200;19.038;2023-06-14T09:35:10;3.30;;;3.00;;
19189;SDS011;9727;50.200;19.038;2023-06-14T09:37:38;4.87;;;3.40;;
19189;SDS011;9727;50.200;19.038;2023-06-14T09:40:09;5.53;;;3.70;;
19189;SDS011;9727;50.200;19.038;2023-06-14T09:42:37;3.40;;;3.10;;
19189;SDS011;9727;50.200;19.038;2023-06-14T09:45:09;3.33;;;3.03;;
19189;SDS011;9727;50.200;19.038;2023-06-14T09:47:36;3.87;;;3.27;;
19189;SDS011;9727;50.200;19.038;2023-06-14T09:50:03;4.73;;;3.40;;
19189;SDS011;9727;50.200;19.038;2023-06-14T09:52:30;5.30;;;3.40;;
19189;SDS011;9727;50.200;19.038;2023-06-14T09:54:58;4.23;;;3.83;;
19189;SDS011;9727;50.200;19.038;2023-06-14T09:57:26;4.33;;;3.60;;
19189;SDS011;9727;50.200;19.038;2023-06-14T09:59:56;5.07;;;3.90;;
19189;SDS011;9727;50.200;19.038;2023-06-14T10:02:34;4.17;;;3.77;;
19189;SDS011;9727;50.200;19.038;2023-06-14T10:05:07;4.50;;;4.10;;
19189;SDS011;9727;50.200;19.038;2023-06-14T10:07:39;4.87;;;4.40;;
19189;SDS011;9727;50.200;19.038;2023-06-14T10:10:09;4.77;;;3.97;;
19189;SDS011;9727;50.200;19.038;2023-06-14T10:12:37;4.67;;;4.27;;
19189;SDS011;9727;50.200;19.038;2023-06-14T10:15:15;5.20;;;4.33;;
19189;SDS011;9727;50.200;19.038;2023-06-14T10:17:49;5.33;;;4.73;;
19189;SDS011;9727;50.200;19.038;2023-06-14T10:20:21;6.37;;;4.60;;
19189;SDS011;9727;50.200;19.038;2023-06-14T10:22:51;4.93;;;4.40;;
19189;SDS011;9727;50.200;19.038;2023-06-14T10:25:28;5.83;;;5.23;;
19189;SDS011;9727;50.200;19.038;2023-06-14T10:31:09;5.67;;;5.17;;
19189;SDS011;9727;50.200;19.038;2023-06-14T10:33:36;6.27;;;5.67;;
19189;SDS011;9727;50.200;19.038;2023-06-14T10:41:36;5.17;;;4.67;;
19189;SDS011;9727;50.200;19.038;2023-06-14T10:46:59;4.13;;;3.73;;
19189;SDS011;9727;50.200;19.038;2023-06-14T10:49:39;4.67;;;4.00;;
19189;SDS011;9727;50.200;19.038;2023-06-14T10:52:13;4.20;;;3.40;;
19189;SDS011;9727;50.200;19.038;2023-06-14T10:57:40;2.73;;;2.50;;
19189;SDS011;9727;50.200;19.038;2023-06-14T11:00:09;3.70;;;3.40;;
19189;SDS011;9727;50.200;19.038;2023-06-14T11:02:51;4.03;;;3.67;;
19189;SDS011;9727;50.200;19.038;2023-06-14T11:05:29;4.10;;;3.70;;
19189;SDS011;9727;50.200;19.038;2023-06-14T11:08:18;4.23;;;3.80;;
19189;SDS011;9727;50.200;19.038;2023-06-14T11:11:00;4.30;;;3.90;;
19189;SDS011;9727;50.200;19.038;2023-06-14T11:13:36;5.70;;;4.03;;
19189;SDS011;9727;50.200;19.038;2023-06-14T11:16:09;4.40;;;4.00;;
19189;SDS011;9727;50.200;19.038;2023-06-14T11:18:38;4.67;;;4.27;;
19189;SDS011;9727;50.200;19.038;2023-06-14T11:21:23;4.13;;;3.67;;
19189;SDS011;9727;50.200;19.038;2023-06-14T11:23:55;4.35;;;3.65;;
19189;SDS011;9727;50.200;19.038;2023-06-14T11:26:25;4.00;;;3.42;;
19189;SDS011;9727;50.200;19.038;2023-06-14T11:28:56;3.90;;;3.50;;
19189;SDS011;9727;50.200;19.038;2023-06-14T11:31:28;3.70;;;3.35;;
19189;SDS011;9727;50.200;19.038;2023-06-14T11:33:58;3.80;;;3.40;;
19189;SDS011;9727;50.200;19.038;2023-06-14T11:36:26;3.42;;;3.13;;
19189;SDS011;9727;50.200;19.038;2023-06-14T11:38:57;4.10;;;3.45;;
19189;SDS011;9727;50.200;19.038;2023-06-14T11:41:24;4.90;;;3.08;;
19189;SDS011;9727;50.200;19.038;2023-06-14T11:43:52;6.15;;;3.80;;
19189;SDS011;9727;50.200;19.038;2023-06-14T11:46:19;4.32;;;3.65;;
19189;SDS011;9727;50.200;19.038;2023-06-14T11:48:49;3.60;;;3.30;;
19189;SDS011;9727;50.200;19.038;2023-06-14T11:51:17;3.80;;;3.05;;
19189;SDS011;9727;50.200;19.038;2023-06-14T11:53:45;3.50;;;3.20;;
19189;SDS011;9727;50.200;19.038;2023-06-14T11:56:13;3.40;;;3.10;;
19189;SDS011;9727;50.200;19.038;2023-06-14T11:58:43;4.00;;;3.20;;
19189;SDS011;9727;50.200;19.038;2023-06-14T12:01:14;4.20;;;3.40;;
19189;SDS011;9727;50.200;19.038;2023-06-14T12:03:51;4.05;;;3.58;;
19189;SDS011;9727;50.200;19.038;2023-06-14T12:06:30;4.97;;;3.45;;
19189;SDS011;9727;50.200;19.038;2023-06-14T12:09:03;3.92;;;3.55;;
19189;SDS011;9727;50.200;19.038;2023-06-14T12:11:37;3.67;;;3.17;;
19189;SDS011;9727;50.200;19.038;2023-06-14T12:14:04;3.63;;;2.90;;
19189;SDS011;9727;50.200;19.038;2023-06-14T12:16:37;3.20;;;2.90;;
19189;SDS011;9727;50.200;19.038;2023-06-14T12:19:11;3.60;;;3.13;;
19189;SDS011;9727;50.200;19.038;2023-06-14T12:21:40;3.13;;;2.80;;
19189;SDS011;9727;50.200;19.038;2023-06-14T12:24:08;2.95;;;2.40;;
19189;SDS011;9727;50.200;19.038;2023-06-14T12:26:37;2.92;;;2.53;;
19189;SDS011;9727;50.200;19.038;2023-06-14T12:29:10;2.88;;;2.42;;
19189;SDS011;9727;50.200;19.038;2023-06-14T12:31:38;3.15;;;2.15;;
19189;SDS011;9727;50.200;19.038;2023-06-14T12:34:10;2.70;;;2.50;;
19189;SDS011;9727;50.200;19.038;2023-06-14T12:36:37;2.72;;;2.50;;
19189;SDS011;9727;50.200;19.038;2023-06-14T12:39:08;2.70;;;2.50;;
19189;SDS011;9727;50.200;19.038;2023-06-14T12:41:35;3.45;;;2.85;;
19189;SDS011;9727;50.200;19.038;2023-06-14T12:44:02;2.85;;;2.53;;
19189;SDS011;9727;50.200;19.038;2023-06-14T12:46:29;3.28;;;2.78;;
19189;SDS011;9727;50.200;19.038;2023-06-14T12:48:56;2.83;;;2.20;;
19189;SDS011;9727;50.200;19.038;2023-06-14T12:51:24;3.80;;;2.60;;
19189;SDS011;9727;50.200;19.038;2023-06-14T12:53:51;2.85;;;2.55;;
19189;SDS011;9727;50.200;19.038;2023-06-14T12:56:21;3.42;;;2.58;;
19189;SDS011;9727;50.200;19.038;2023-06-14T12:58:47;3.20;;;2.72;;
19189;SDS011;9727;50.200;19.038;2023-06-14T13:01:14;3.83;;;2.60;;
19189;SDS011;9727;50.200;19.038;2023-06-14T13:03:56;3.15;;;2.40;;
19189;SDS011;9727;50.200;19.038;2023-06-14T13:06:22;4.45;;;2.70;;
19189;SDS011;9727;50.200;19.038;2023-06-14T13:08:57;2.67;;;2.42;;
19189;SDS011;9727;50.200;19.038;2023-06-14T13:11:26;4.45;;;2.58;;
19189;SDS011;9727;50.200;19.038;2023-06-14T13:13:53;4.05;;;2.45;;
19189;SDS011;9727;50.200;19.038;2023-06-14T13:16:25;5.90;;;2.40;;
19189;SDS011;9727;50.200;19.038;2023-06-14T13:18:53;3.08;;;2.20;;
19189;SDS011;9727;50.200;19.038;2023-06-14T13:21:24;3.28;;;2.50;;
19189;SDS011;9727;50.200;19.038;2023-06-14T13:23:51;2.53;;;2.08;;
19189;SDS011;9727;50.200;19.038;2023-06-14T13:26:19;3.13;;;2.58;;
19189;SDS011;9727;50.200;19.038;2023-06-14T13:28:47;3.00;;;2.30;;
19189;SDS011;9727;50.200;19.038;2023-06-14T13:31:14;3.53;;;2.60;;
19189;SDS011;9727;50.200;19.038;2023-06-14T13:33:41;2.83;;;2.10;;
19189;SDS011;9727;50.200;19.038;2023-06-14T13:36:11;3.22;;;2.30;;
19189;SDS011;9727;50.200;19.038;2023-06-14T13:38:37;3.38;;;2.45;;
19189;SDS011;9727;50.200;19.038;2023-06-14T13:41:04;2.22;;;1.92;;
19189;SDS011;9727;50.200;19.038;2023-06-14T13:43:33;2.90;;;1.98;;
19189;SDS011;9727;50.200;19.038;2023-06-14T13:46:01;4.47;;;1.80;;
19189;SDS011;9727;50.200;19.038;2023-06-14T13:48:28;2.60;;;2.08;;
19189;SDS011;9727;50.200;19.038;2023-06-14T13:50:56;5.13;;;2.35;;
19189;SDS011;9727;50.200;19.038;2023-06-14T13:53:24;3.80;;;2.63;;
19189;SDS011;9727;50.200;19.038;2023-06-14T13:55:50;4.32;;;3.00;;
19189;SDS011;9727;50.200;19.038;2023-06-14T13:58:23;4.60;;;2.88;;
19189;SDS011;9727;50.200;19.038;2023-06-14T14:00:54;7.05;;;3.75;;
19189;SDS011;9727;50.200;19.038;2023-06-14T14:03:29;4.38;;;3.30;;
19189;SDS011;9727;50.200;19.038;2023-06-14T14:05:57;4.97;;;3.58;;
19189;SDS011;9727;50.200;19.038;2023-06-14T14:08:23;9.07;;;3.55;;
19189;SDS011;9727;50.200;19.038;2023-06-14T14:10:51;6.25;;;3.47;;
19189;SDS011;9727;50.200;19.038;2023-06-14T14:13:17;5.75;;;3.67;;
19189;SDS011;9727;50.200;19.038;2023-06-14T14:15:44;7.05;;;4.22;;
19189;SDS011;9727;50.200;19.038;2023-06-14T14:18:11;5.82;;;3.92;;
19189;SDS011;9727;50.200;19.038;2023-06-14T14:20:39;5.82;;;3.85;;
19189;SDS011;9727;50.200;19.038;2023-06-14T14:23:08;5.25;;;3.95;;
19189;SDS011;9727;50.200;19.038;2023-06-14T14:25:36;5.35;;;2.95;;
19189;SDS011;9727;50.200;19.038;2023-06-14T14:28:03;6.00;;;3.40;;
19189;SDS011;9727;50.200;19.038;2023-06-14T14:30:43;4.55;;;3.17;;
19189;SDS011;9727;50.200;19.038;2023-06-14T14:33:09;4.82;;;3.28;;
19189;SDS011;9727;50.200;19.038;2023-06-14T14:35:42;3.78;;;3.13;;
19189;SDS011;9727;50.200;19.038;2023-06-14T14:38:13;4.40;;;3.33;;
19189;SDS011;9727;50.200;19.038;2023-06-14T14:40:40;5.60;;;3.92;;
19189;SDS011;9727;50.200;19.038;2023-06-14T14:43:08;7.75;;;4.55;;
19189;SDS011;9727;50.200;19.038;2023-06-14T14:45:35;5.90;;;4.22;;
19189;SDS011;9727;50.200;19.038;2023-06-14T14:48:02;5.82;;;4.20;;
19189;SDS011;9727;50.200;19.038;2023-06-14T14:50:29;5.25;;;4.30;;
19189;SDS011;9727;50.200;19.038;2023-06-14T14:52:57;6.45;;;4.05;;
19189;SDS011;9727;50.200;19.038;2023-06-14T14:55:25;4.70;;;3.75;;
19189;SDS011;9727;50.200;19.038;2023-06-14T14:57:52;6.57;;;4.10;;
19189;SDS011;9727;50.200;19.038;2023-06-14T15:00:28;4.40;;;3.42;;
19189;SDS011;9727;50.200;19.038;2023-06-14T15:02:55;4.97;;;3.50;;
19189;SDS011;9727;50.200;19.038;2023-06-14T15:05:22;5.68;;;3.65;;
19189;SDS011;9727;50.200;19.038;2023-06-14T15:07:48;4.28;;;3.28;;
19189;SDS011;9727;50.200;19.038;2023-06-14T15:10:17;6.75;;;3.80;;